Tiempo atmosférico en la estación meteorológica de San Pedro Manrique, Soria (1096 m.)



Fecha
DESCASC
Temp. máxima en grados centígrados (hora)
DESCASC
Temp. mínima en grados centígrados (hora)
DESCASC
Temp. media en grados centígrados
DESCASC
Racha de viento máxima en m/sg (hora)
DESCASC
Velocidad máxima media en intervalos de 10 minutos(hora)
DESCASC
Precipitaciones diarias en mm
DESCASC
Precipitaciones de 00:00 a 06:00 en mm
DESCASC
Precipitaciones de 06:00 a 12:00 en mm
DESCASC
Precipitaciones de 12:00 a 18:00 en mm
DESCASC
Precipitaciones de 18:00 a 24:00 en mm
DESCASC
10-07-2020 24.5 (17:10) 12.4 (07:20) 18.4 7.22 (16:40) 4.44 (15:00) 0 0 0 0 0
09-07-2020 28.9 (15:50) 11.6 (06:50) 20.3 10.56 (16:50) 6.39 (17:10) 0 0 0 0 0
08-07-2020 28.6 (15:20) 8.9 (06:20) 18.8 7.22 (18:40) 4.17 (16:40) 0 0 0 0 0
07-07-2020 27.8 (18:20) 4.2 (07:10) 16 8.33 (15:50) 4.44 (15:40) 0 0 0 0 0
06-07-2020 22.2 (16:00) 11.2 (00:00) 16.7 10 (18:30) 5.28 (16:30) 0 0 0 0 0
05-07-2020 28.2 (18:20) 8.1 (06:20) 18.2 7.78 (19:10) 4.72 (17:30) 0 0 0 0 0
04-07-2020 25.4 (18:10) 2.4 (07:10) 13.9 7.78 (19:20) 4.17 (19:40) 0 0 0 0 0
03-07-2020 20 (18:50) 10.2 (08:10) 15.1 8.33 (16:10) 5 (17:20) 0 0 0 0 0
02-07-2020 20.1 (15:50) 10.9 (00:00) 15.5 9.17 (14:50) 5 (18:30) 0 0 0 0 0
01-07-2020 26 (15:40) 12.2 (00:00) 19.1 9.17 (17:30) 5.83 (17:30) 0 0 0 0 0
30-06-2020 25.9 (14:50) 9.3 (00:00) 17.6 11.94 (19:50) 5.83 (20:00) 1.2 0 0 0 1.2
29-06-2020 22.9 (18:30) 13.9 (00:00) 18.4 8.33 (14:50) 5 (16:20) 0 0 0 0 0
28-06-2020 26.7 (14:50) 10.6 (00:00) 18.7 8.06 (14:20) 4.44 (15:20) 0 0 0 0 0
27-06-2020 24.6 (14:10) 8.6 (00:00) 16.6 9.17 (11:50) 5 (14:30) 0 0 0 0 0
26-06-2020 26.6 (18:00) 10.3 (00:00) 18.5 8.33 (15:20) 4.44 (15:00) 0 0 0 0 0
25-06-2020 27.7 (13:00) 10.3 (00:00) 19 14.44 (19:00) 6.39 (20:20) 12.6 0 0 2 10.6
24-06-2020 29.1 (18:10) 13.5 (00:00) 21.3 10.83 (16:20) 6.11 (16:50) 0 0 0 0 0
23-06-2020 28.1 (18:00) 6.5 (00:00) 17.3 6.94 (14:00) 4.44 (14:10) 0 0 0 0 0
22-06-2020 26.8 (18:30) 8.9 (00:00) 17.8 6.39 (13:10) 4.17 (13:00) 0 0 0 0 0
21-06-2020 24.6 (18:40) 7.2 (00:00) 15.9 10 (20:00) 6.11 (21:30) 0 0 0 0 0
20-06-2020 24.7 (18:30) 7.8 (00:00) 16.3 7.22 (16:50) 5 (16:30) 0 0 0 0 0
19-06-2020 22.5 (14:50) 4.6 (00:00) 13.5 8.33 (15:10) 5 (15:10) 0 0 0 0 0
18-06-2020 15.8 (17:40) 6.8 (06:30) 11.3 6.39 (13:40) 3.61 (13:40) 1 0 0 1 0
17-06-2020 16.7 (18:20) 8.5 (00:00) 12.6 6.39 (16:50) 3.89 (16:40) 3.8 0 2.6 1.2 0
16-06-2020 17.9 (14:20) 9.4 (00:00) 13.6 8.06 (17:40) 5 (18:00) 11.8 0 0 2 9.8
15-06-2020 19 (14:50) 6.9 (00:00) 13 8.61 (14:20) 4.44 (15:20) 0 0 0 0 0
14-06-2020 19.9 (15:50) 7.9 (00:00) 13.9 9.44 (13:50) 5 (13:20) 0 0 0 0 0
13-06-2020 17.6 (16:10) 7.7 (00:00) 12.7 9.72 (09:50) 5.56 (18:30) 0 0 0 0 0
12-06-2020 13.8 (15:50) 6 (00:00) 9.9 15 (05:30) 7.5 (06:20) 0.8 0 0 0.2 0.6

Gráficas

Temp. máximas Temp. mínimas Temp. medias Precipitaciones Rachas de viento máximas Velocidades máximas media en intervalos de 10 minutos

Datos horarios

Fecha y hora oficial Temperatura (ºC) Velocidad del viento (km/h) Dirección del viento Racha (km/h) Dirección de racha Precipitación (mm) Presión (hPa) Tendencia (hPa) Humedad (%)
2020-07-11 23:00:00 18.7 2 Noroeste 13 Nordeste 0 -- -- 65
2020-07-11 22:00:00 20.8 8 Nordeste 16 Nordeste 0 -- -- 58
2020-07-11 21:00:00 22.6 9 Norte 20 Nordeste 0 -- -- 50
2020-07-11 20:00:00 24.8 11 Norte 19 Norte 0 -- -- 45
2020-07-11 19:00:00 25.1 13 Norte 22 Nordeste 0 -- -- 45
2020-07-11 18:00:00 25.1 13 Nordeste 22 Nordeste 0 -- -- 47
2020-07-11 17:00:00 24.7 13 Nordeste 23 Nordeste 0 -- -- 48
2020-07-11 16:00:00 24.5 12 Nordeste 24 Nordeste 0 -- -- 49
2020-07-11 15:00:00 23.7 12 Nordeste 21 Nordeste 0 -- -- 50
2020-07-11 14:00:00 22.7 13 Nordeste 20 Norte 0 -- -- 52
2020-07-11 13:00:00 21.7 12 Nordeste 19 Nordeste 0 -- -- 56
2020-07-11 12:00:00 20.4 9 Nordeste 16 Nordeste 0 -- -- 59
2020-07-11 11:00:00 17.1 2 Norte 8 Noroeste 0 -- -- 67
2020-07-11 10:00:00 14.9 2 Nordeste 7 Nordeste 0 -- -- 76
2020-07-11 09:00:00 13.7 0 Calma 10 Oeste 0 -- -- 79
2020-07-11 08:00:00 12.9 6 Oeste 14 Oeste 0 -- -- 83
2020-07-11 07:00:00 12.9 4 Oeste 8 Oeste 0 -- -- 84
2020-07-11 06:00:00 12.6 3 Este 6 Nordeste 0 -- -- 85
2020-07-11 05:00:00 11.9 0 Calma 4 Este 0 -- -- 84
2020-07-11 04:00:00 12.5 0 Calma 5 Noroeste 0 -- -- 83
2020-07-11 03:00:00 13 3 Noroeste 8 Noroeste 0 -- -- 83
2020-07-11 02:00:00 13.7 3 Nordeste 13 Nordeste 0 -- -- 82
2020-07-11 01:00:00 14 7 Nordeste 14 Nordeste 0 -- -- 82
2020-07-11 00:00:00 14.5 8 Nordeste 16 Nordeste 0 -- -- 80
2020-07-10 23:00:00 14.7 9 Nordeste 22 Nordeste 0 -- -- 79
2020-07-10 22:00:00 15.6 13 Nordeste 22 Nordeste 0 -- -- 76
2020-07-10 21:00:00 18 13 Nordeste 26 Nordeste 0 -- -- 69
2020-07-10 20:00:00 20.3 15 Nordeste 24 Nordeste 0 -- -- 63
2020-07-10 19:00:00 22 11 Nordeste 23 Norte 0 -- -- 59
2020-07-10 18:00:00 23.5 14 Nordeste 25 Nordeste 0 -- -- 53
2020-07-10 17:00:00 24.3 10 Norte 26 Norte 0 -- -- 51
2020-07-10 16:00:00 23.9 11 Norte 24 Norte 0 -- -- 51
2020-07-10 15:00:00 23.2 16 Nordeste 25 Norte 0 -- -- 53
2020-07-10 14:00:00 23.3 14 Nordeste 23 Norte 0 -- -- 55
2020-07-10 13:00:00 22.7 14 Nordeste 22 Nordeste 0 -- -- 55
2020-07-10 12:00:00 22 11 Nordeste 20 Nordeste 0 -- -- 56
2020-07-10 11:00:00 21.9 10 Nordeste 21 Nordeste 0 -- -- 55
2020-07-10 10:00:00 20.3 4 Nordeste 8 Norte 0 -- -- 55
2020-07-10 09:00:00 16.7 3 Nordeste 6 Este 0 -- -- 66
2020-07-10 08:00:00 13.2 3 Sudeste 6 Sudeste 0 -- -- 76
2020-07-10 07:00:00 12.7 0 Calma 6 Este 0 -- -- 76
2020-07-10 06:00:00 14.3 0 Calma 4 Noroeste 0 -- -- 73
2020-07-10 05:00:00 15.2 2 Sudoeste 7 Sudeste 0 -- -- 70
2020-07-10 04:00:00 15.3 2 Sudoeste 8 Sur 0 -- -- 67
2020-07-10 03:00:00 16.7 4 Sur 15 Oeste 0 -- -- 62
2020-07-10 02:00:00 17.5 7 Oeste 17 Noroeste 0 -- -- 59
2020-07-10 01:00:00 18.1 3 Noroeste 12 Sur 0 -- -- 57
2020-07-10 00:00:00 18.6 6 Sur 31 Sur 0 -- -- 55
2020-07-09 23:00:00 20.1 3 Sudoeste 24 Sur 0 -- -- 48
2020-07-09 22:00:00 19.8 9 Sudoeste 25 Sudoeste 0 -- -- 48
2020-07-09 21:00:00 20.7 6 Sudoeste 23 Oeste 0 -- -- 45
2020-07-09 20:00:00 21.7 9 Oeste 28 Noroeste 0 -- -- 43
2020-07-09 19:00:00 22.1 15 Noroeste 36 Sur 0 -- -- 43
2020-07-09 18:00:00 25.7 16 Sur 36 Sudeste 0 -- -- 36
2020-07-09 17:00:00 28.5 22 Sudeste 38 Sudeste 0 -- -- 35
2020-07-09 16:00:00 28.7 14 Este 34 Este 0 -- -- 40
2020-07-09 15:00:00 28.1 10 Sudeste 24 Sudeste 0 -- -- 39
2020-07-09 14:00:00 28.1 11 Este 22 Este 0 -- -- 33
2020-07-09 13:00:00 26.4 7 Sudeste 20 Este 0 -- -- 35
2020-07-09 12:00:00 24.2 6 Sudeste 21 Sudeste 0 -- -- 44
2020-07-09 11:00:00 21.5 3 Oeste 15 Sudeste 0 -- -- 55
2020-07-09 10:00:00 22 10 Sudeste 19 Sudeste 0 -- -- 51
2020-07-09 09:00:00 16.6 0 Calma 5 Sudeste 0 -- -- 68
2020-07-09 08:00:00 13.4 0 Calma 7 Sur 0 -- -- 77
2020-07-09 07:00:00 11.8 0 Calma 9 Sur 0 -- -- 79
2020-07-09 06:00:00 12.8 2 Oeste 9 Sudeste 0 -- -- 76
2020-07-09 05:00:00 13.3 3 Sudoeste 7 Sudoeste 0 -- -- 73
2020-07-09 04:00:00 14.6 0 Calma 8 Sur 0 -- -- 69
2020-07-09 03:00:00 15.5 3 Sudoeste 10 Sur 0 -- -- 66
2020-07-09 02:00:00 16 4 Sudeste 11 Sudoeste 0 -- -- 63
2020-07-09 01:00:00 17.5 3 Sudoeste 18 Sudoeste 0 -- -- 56
2020-07-09 00:00:00 19.6 9 Sudoeste 19 Sudoeste 0 -- -- 49
2020-07-08 23:00:00 22.2 7 Sur 21 Sudeste 0 -- -- 40
2020-07-08 22:00:00 22.9 3 Oeste 15 Noroeste 0 -- -- 40
2020-07-08 21:00:00 22.6 4 Oeste 10 Oeste 0 -- -- 55
2020-07-08 20:00:00 24.5 3 Nordeste 16 Nordeste 0 -- -- 46
2020-07-08 19:00:00 23.9 6 Este 26 Sudeste 0 -- -- 49
2020-07-08 18:00:00 25.8 6 Este 19 Norte 0 -- -- 48
2020-07-08 17:00:00 25.9 14 Nordeste 23 Nordeste 0 -- -- 46
2020-07-08 16:00:00 27.8 9 Nordeste 21 Este 0 -- -- 45
2020-07-08 15:00:00 27.2 8 Nordeste 18 Sudeste 0 -- -- 43
2020-07-08 14:00:00 26.8 10 Este 21 Este 0 -- -- 40
2020-07-08 13:00:00 25.6 3 Este 15 Este 0 -- -- 40
2020-07-08 12:00:00 24.3 10 Sudeste 19 Este 0 -- -- 45
2020-07-08 11:00:00 23.4 4 Nordeste 14 Sur 0 -- -- 48
2020-07-08 10:00:00 18.6 0 Calma 6 Oeste 0 -- -- 60
2020-07-08 09:00:00 15 4 Norte 9 Nordeste 0 -- -- 65
2020-07-08 08:00:00 10.6 0 Calma 4 Sudeste 0 -- -- 79
2020-07-08 07:00:00 9.1 0 Calma 7 Sur 0 -- -- 81
2020-07-08 06:00:00 9.2 0 Calma 3 Sudeste 0 -- -- 81
2020-07-08 05:00:00 9.6 0 Calma 3 Noroeste 0 -- -- 79
2020-07-08 04:00:00 10.4 0 Calma 4 Sur 0 -- -- 79
2020-07-08 03:00:00 11.1 0 Calma 6 Sur 0 -- -- 75
2020-07-08 02:00:00 12 0 Calma 4 Sudoeste 0 -- -- 73
2020-07-08 01:00:00 13.2 0 Calma 5 Sudoeste 0 -- -- 67
2020-07-08 00:00:00 14.5 0 Calma 6 Sudoeste 0 -- -- 64
2020-07-07 23:00:00 16.7 0 Calma 7 Oeste 0 -- -- 57
2020-07-07 22:00:00 20.4 4 Oeste 15 Noroeste 0 -- -- 45
2020-07-07 21:00:00 23.4 6 Norte 21 Norte 0 -- -- 34
2020-07-07 20:00:00 26.4 12 Nordeste 22 Nordeste 0 -- -- 27
2020-07-07 19:00:00 27.2 13 Nordeste 23 Norte 0 -- -- 28
2020-07-07 18:00:00 27.2 13 Nordeste 27 Nordeste 0 -- -- 30
2020-07-07 17:00:00 26.6 16 Nordeste 28 Nordeste 0 -- -- 28
2020-07-07 16:00:00 26.7 16 Nordeste 30 Nordeste 0 -- -- 28
2020-07-07 15:00:00 26.8 14 Nordeste 26 Nordeste 0 -- -- 29
2020-07-07 14:00:00 26.5 11 Nordeste 21 Nordeste 0 -- -- 27
2020-07-07 13:00:00 24.5 5 Nordeste 19 Nordeste 0 -- -- 23
2020-07-07 12:00:00 22.7 13 Nordeste 22 Nordeste 0 -- -- 23
2020-07-07 11:00:00 20.8 6 Nordeste 16 Nordeste 0 -- -- 25
2020-07-07 10:00:00 16.6 2 Nordeste 7 Este 0 -- -- 41
2020-07-07 09:00:00 11 0 Calma 4 Este 0 -- -- 57
2020-07-07 08:00:00 6.6 0 Calma 5 Este 0 -- -- 76
2020-07-07 07:00:00 4.4 3 Sur 7 Sudeste 0 -- -- 77
2020-07-07 06:00:00 5.5 0 Calma 5 Oeste 0 -- -- 80
2020-07-07 05:00:00 6.2 0 Calma 5 Sur 0 -- -- 80
2020-07-07 04:00:00 7.2 0 Calma 5 Este 0 -- -- 80
2020-07-07 03:00:00 8.4 0 Calma 11 Noroeste 0 -- -- 82
2020-07-07 02:00:00 9.9 3 Sudoeste 8 Oeste 0 -- -- 82
2020-07-07 01:00:00 10.2 3 Sudoeste 11 Oeste 0 -- -- 81
2020-07-07 00:00:00 12.2 0 Calma 8 Norte 0 -- -- 76
2020-07-06 23:00:00 13.9 0 Calma 14 Nordeste 0 -- -- 75
2020-07-06 22:00:00 15.3 5 Nordeste 21 Noroeste 0 -- -- 71
2020-07-06 21:00:00 17.3 12 Norte 24 Noroeste 0 -- -- 64
2020-07-06 20:00:00 20.3 12 Norte 26 Noroeste 0 -- -- 56
2020-07-06 19:00:00 20.9 15 Norte 36 Noroeste 0 -- -- 55
2020-07-06 18:00:00 21.6 16 Norte 35 Norte 0 -- -- 53
2020-07-06 17:00:00 21.7 19 Norte 35 Norte 0 -- -- 53
2020-07-06 16:00:00 22.2 14 Norte 27 Norte 0 -- -- 52
2020-07-06 15:00:00 21.7 13 Norte 30 Norte 0 -- -- 55
2020-07-06 14:00:00 21.1 11 Nordeste 28 Nordeste 0 -- -- 56
2020-07-06 13:00:00 19.6 18 Nordeste 31 Nordeste 0 -- -- 62
2020-07-06 12:00:00 19.5 13 Norte 28 Nordeste 0 -- -- 62
2020-07-06 11:00:00 20 13 Nordeste 22 Nordeste 0 -- -- 61
2020-07-06 10:00:00 18.7 11 Norte 23 Nordeste 0 -- -- 64
2020-07-06 09:00:00 16.9 8 Nordeste 19 Nordeste 0 -- -- 67
2020-07-06 08:00:00 12.9 0 Calma 4 Sur 0 -- -- 79
2020-07-06 07:00:00 11.3 0 Calma 4 Sur 0 -- -- 81
2020-07-06 06:00:00 11.7 0 Calma 6 Este 0 -- -- 81
2020-07-06 05:00:00 12.7 0 Calma 6 Sudeste 0 -- -- 78
2020-07-06 04:00:00 13 3 Noroeste 6 Noroeste 0 -- -- 78
2020-07-06 03:00:00 13.9 0 Calma 4 Norte 0 -- -- 79
2020-07-06 02:00:00 14.8 0 Calma 6 Noroeste 0 -- -- 77
2020-07-06 01:00:00 16.2 0 Calma 5 Este 0 -- -- 72
2020-07-06 00:00:00 18.3 0 Calma 13 Norte 0 -- -- 66
2020-07-05 23:00:00 20.5 7 Norte 15 Noroeste 0 -- -- 56
2020-07-05 22:00:00 22 6 Norte 22 Nordeste 0 -- -- 54
2020-07-05 21:00:00 23.9 10 Norte 27 Norte 0 -- -- 49
2020-07-05 20:00:00 26.8 11 Norte 28 Norte 0 -- -- 39
2020-07-05 19:00:00 27.8 14 Norte 26 Norte 0 -- -- 36
2020-07-05 18:00:00 27.8 13 Norte 27 Nordeste 0 -- -- 36
2020-07-05 17:00:00 27.2 16 Nordeste 26 Nordeste 0 -- -- 39
2020-07-05 16:00:00 27.3 9 Nordeste 23 Este 0 -- -- 37
2020-07-05 15:00:00 26.6 10 Nordeste 19 Nordeste 0 -- -- 37
2020-07-05 14:00:00 25.8 11 Nordeste 21 Norte 0 -- -- 37
2020-07-05 13:00:00 25 10 Nordeste 19 Nordeste 0 -- -- 37
2020-07-05 12:00:00 23.6 11 Nordeste 23 Nordeste 0 -- -- 42
2020-07-05 11:00:00 22.7 10 Nordeste 17 Norte 0 -- -- 42
2020-07-05 10:00:00 20.4 3 Este 6 Este 0 -- -- 50
2020-07-05 09:00:00 15.1 0 Calma -- -- 0 -- -- 65
2020-07-05 08:00:00 10.3 0 Calma 3 Sur 0 -- -- 77
2020-07-05 07:00:00 8.1 0 Calma 5 Sur 0 -- -- 82
2020-07-05 06:00:00 8.4 0 Calma 4 Oeste 0 -- -- 81
2020-07-05 05:00:00 8.6 0 Calma 6 Sur 0 -- -- 81
2020-07-05 04:00:00 8.9 0 Calma 5 Sudeste 0 -- -- 80
2020-07-05 03:00:00 9.9 0 Calma 5 Sur 0 -- -- 77
2020-07-05 02:00:00 11.1 0 Calma 4 Sur 0 -- -- 75
2020-07-05 01:00:00 12.7 0 Calma 8 Sur 0 -- -- 69
2020-07-05 00:00:00 14.2 3 Sur 10 Sur 0 -- -- 63
2020-07-04 23:00:00 17.2 2 Noroeste 5 Sudeste 0 -- -- 51
2020-07-04 22:00:00 19.8 6 Norte 24 Noroeste 0 -- -- 44
2020-07-04 21:00:00 21.6 8 Norte 19 Norte 0 -- -- 37
2020-07-04 20:00:00 23.7 11 Norte 28 Nordeste 0 -- -- 30
2020-07-04 19:00:00 25.1 13 Nordeste 24 Norte 0 -- -- 26
2020-07-04 18:00:00 25.1 12 Norte 23 Nordeste 0 -- -- 27
2020-07-04 17:00:00 24.5 13 Nordeste 24 Nordeste 0 -- -- 26
2020-07-04 16:00:00 24.1 12 Norte 27 Nordeste 0 -- -- 26
2020-07-04 15:00:00 23.5 13 Nordeste 24 Nordeste 0 -- -- 26
2020-07-04 14:00:00 22.5 9 Noroeste 23 Norte 0 -- -- 27
2020-07-04 13:00:00 21.5 13 Nordeste 26 Nordeste 0 -- -- 29
2020-07-04 12:00:00 21 9 Nordeste 24 Nordeste 0 -- -- 29
2020-07-04 11:00:00 19.7 5 Nordeste 11 Nordeste 0 -- -- 29
2020-07-04 10:00:00 16.6 3 Nordeste 13 Sur 0 -- -- 39
2020-07-04 09:00:00 10.3 3 Sudeste 8 Sudeste 0 -- -- 68
2020-07-04 08:00:00 5.5 0 Calma 9 Sur 0 -- -- 78
2020-07-04 07:00:00 2.6 0 Calma 6 Sudeste 0 -- -- 82
2020-07-04 06:00:00 3.1 0 Calma 7 Sur 0 -- -- 82
2020-07-04 05:00:00 3.9 0 Calma 7 Sur 0 -- -- 81
2020-07-04 04:00:00 4.9 0 Calma 6 Sudoeste 0 -- -- 81
2020-07-04 03:00:00 5.8 5 Sur 9 Sur 0 -- -- 82
2020-07-04 02:00:00 8 0 Calma 7 Oeste 0 -- -- 81
2020-07-04 01:00:00 9.4 3 Sudeste 8 Este 0 -- -- 79
2020-07-04 00:00:00 11 0 Calma 10 Nordeste 0 -- -- 75
2020-07-03 23:00:00 12.9 3 Nordeste 12 Norte 0 -- -- 69
2020-07-03 22:00:00 14.4 5 Norte 20 Norte 0 -- -- 64
2020-07-03 21:00:00 16.1 13 Norte 24 Norte 0 -- -- 59
2020-07-03 20:00:00 18.6 15 Norte 28 Nordeste 0 -- -- 52
2020-07-03 19:00:00 19.7 16 Norte 27 Norte 0 -- -- 49
2020-07-03 18:00:00 19.1 14 Nordeste 27 Norte 0 -- -- 51
2020-07-03 17:00:00 18.5 16 Nordeste 30 Nordeste 0 -- -- 53
2020-07-03 16:00:00 17.9 17 Nordeste 28 Nordeste 0 -- -- 55
2020-07-03 15:00:00 17.5 12 Norte 27 Nordeste 0 -- -- 56
2020-07-03 14:00:00 16.1 12 Norte 25 Nordeste 0 -- -- 57
2020-07-03 13:00:00 14.8 13 Norte 24 Norte 0 -- -- 61
2020-07-03 12:00:00 13.4 8 Norte 21 Nordeste 0 -- -- 64
2020-07-03 11:00:00 12 13 Norte 22 Norte 0 -- -- 73
2020-07-03 10:00:00 11.5 7 Norte 16 Norte 0 -- -- 77
2020-07-03 09:00:00 10.3 7 Norte 19 Nordeste 0 -- -- 82
2020-07-03 08:00:00 10.4 6 Norte 18 Norte 0 -- -- 82
2020-07-03 07:00:00 10.5 5 Noroeste 23 Noroeste 0 -- -- 80
2020-07-03 06:00:00 10.5 8 Noroeste 16 Noroeste 0 -- -- 83
2020-07-03 05:00:00 10.4 8 Norte 15 Oeste 0 -- -- 84
2020-07-03 04:00:00 10.6 9 Noroeste 21 Noroeste 0 -- -- 86
2020-07-03 03:00:00 10.7 4 Norte 11 Norte 0 -- -- 87
2020-07-03 02:00:00 10.9 8 Norte 18 Norte 0 -- -- 84
2020-07-03 01:00:00 11 6 Norte 17 Nordeste 0 -- -- 83
2020-07-03 00:00:00 11 6 Norte 21 Nordeste 0 -- -- 84
2020-07-02 23:00:00 11.1 10 Nordeste 26 Norte 0 -- -- 86
2020-07-02 22:00:00 12 10 Norte 25 Norte 0 -- -- 83
2020-07-02 21:00:00 12.9 10 Norte 28 Norte 0 -- -- 81
2020-07-02 20:00:00 14.6 15 Norte 32 Norte 0 -- -- 76
2020-07-02 19:00:00 15.8 17 Nordeste 32 Norte 0 -- -- 73
2020-07-02 18:00:00 17.9 11 Norte 31 Norte 0 -- -- 68
2020-07-02 17:00:00 19.1 15 Norte 31 Norte 0 -- -- 65
2020-07-02 16:00:00 19.7 14 Norte 28 Nordeste 0 -- -- 64
2020-07-02 15:00:00 19.5 15 Nordeste 33 Nordeste 0 -- -- 66
2020-07-02 14:00:00 19.4 15 Nordeste 24 Norte 0 -- -- 67
2020-07-02 13:00:00 19.1 12 Nordeste 22 Nordeste 0 -- -- 69
2020-07-02 12:00:00 19 10 Nordeste 20 Nordeste 0 -- -- 69
2020-07-02 11:00:00 17.7 9 Nordeste 15 Nordeste 0 -- -- 71
2020-07-02 10:00:00 16.4 5 Nordeste 13 Nordeste 0 -- -- 77
2020-07-02 09:00:00 15.6 7 Nordeste 13 Nordeste 0 -- -- 81
2020-07-02 08:00:00 15 4 Noroeste 8 Noroeste 0 -- -- 85
2020-07-02 07:00:00 15 0 Calma 6 Norte 0 -- -- 85
2020-07-02 06:00:00 15 4 Noroeste 8 Oeste 0 -- -- 85
2020-07-02 05:00:00 15.3 0 Calma 8 Oeste 0 -- -- 84
2020-07-02 04:00:00 15 2 Sudeste 6 Nordeste 0 -- -- 86
2020-07-02 03:00:00 15.5 3 Nordeste 12 Nordeste 0 -- -- 84
2020-07-02 02:00:00 15.9 4 Nordeste 15 Nordeste 0 -- -- 83
2020-07-02 01:00:00 16.3 8 Nordeste 19 Nordeste 0 -- -- 82
2020-07-02 00:00:00 17 7 Nordeste 13 Nordeste 0 -- -- 80
2020-07-01 23:00:00 17.2 5 Nordeste 17 Nordeste 0 -- -- 80
2020-07-01 22:00:00 18.7 11 Nordeste 23 Nordeste 0 -- -- 76
2020-07-01 21:00:00 20.7 11 Nordeste 21 Nordeste 0 -- -- 68
2020-07-01 20:00:00 23.2 12 Nordeste 24 Nordeste 0 -- -- 62
2020-07-01 19:00:00 23.2 17 Nordeste 33 Nordeste 0 -- -- 62
2020-07-01 18:00:00 24.9 18 Nordeste 33 Nordeste 0 -- -- 56
2020-07-01 17:00:00 25.6 14 Nordeste 27 Nordeste 0 -- -- 57
2020-07-01 16:00:00 25.2 15 Nordeste 28 Nordeste 0 -- -- 61
2020-07-01 15:00:00 25.6 14 Nordeste 23 Nordeste 0 -- -- 58
2020-07-01 14:00:00 25.7 9 Nordeste 29 Nordeste 0 -- -- 59
2020-07-01 13:00:00 23.3 17 Nordeste 27 Norte 0 -- -- 66
2020-07-01 12:00:00 24.1 13 Nordeste 23 Nordeste 0 -- -- 64
2020-07-01 11:00:00 24.9 10 Sudoeste 22 Sudoeste 0 -- -- 59
2020-07-01 10:00:00 22.8 10 Sur 21 Sudoeste 0 -- -- 64
2020-07-01 09:00:00 18.2 0 Calma 9 Sudoeste 0 -- -- 81
2020-07-01 08:00:00 13.8 0 Calma 9 Oeste 0 -- -- 88
2020-07-01 07:00:00 12.2 2 Sudeste 8 Sur 0 -- -- 88
2020-07-01 06:00:00 12.9 2 Sudeste 5 Sur 0 -- -- 88
2020-07-01 05:00:00 13.2 2 Sur 8 Sur 0 -- -- 87
2020-07-01 04:00:00 13.6 0 Calma 10 Sudoeste 0 -- -- 86
2020-07-01 03:00:00 13.8 3 Sudeste 9 Sudoeste 0 -- -- 85
2020-07-01 02:00:00 14.7 3 Sudoeste 8 Sudoeste 0 -- -- 82
2020-07-01 01:00:00 16.4 3 Sudoeste 21 Sudoeste 0 -- -- 80
2020-07-01 00:00:00 17.5 12 Noroeste 30 Oeste 0 -- -- 77
2020-06-30 23:00:00 18.2 7 Sur 30 Oeste 0 -- -- 73
2020-06-30 22:00:00 17.5 5 Sudeste 18 Oeste 0 -- -- 78
2020-06-30 21:00:00 18.1 3 Oeste 30 Oeste 0 -- -- 75
2020-06-30 20:00:00 20.1 21 Este 43 Norte 1.2 -- -- 58
2020-06-30 19:00:00 19.6 0 Calma 13 Este 0 -- -- 67
2020-06-30 18:00:00 20.4 5 Sur 12 Nordeste 0 -- -- 68
2020-06-30 17:00:00 21.6 0 Calma 20 Sur 0 -- -- 59
2020-06-30 16:00:00 24.8 17 Nordeste 30 Norte 0 -- -- 45
2020-06-30 15:00:00 25.8 12 Nordeste 22 Norte 0 -- -- 45
2020-06-30 14:00:00 24.9 12 Nordeste 20 Nordeste 0 -- -- 47
2020-06-30 13:00:00 24.6 11 Nordeste 18 Nordeste 0 -- -- 48
2020-06-30 12:00:00 24.2 11 Este 18 Este 0 -- -- 43
2020-06-30 11:00:00 22.5 6 Sudeste 13 Este 0 -- -- 46
2020-06-30 10:00:00 18.7 0 Calma -- -- 0 -- -- 57
2020-06-30 09:00:00 14.6 0 Calma 5 Sudeste 0 -- -- 76
2020-06-30 08:00:00 11.1 0 Calma 4 Sur 0 -- -- 82
2020-06-30 07:00:00 9.4 0 Calma 4 Sur 0 -- -- 86
2020-06-30 06:00:00 9.7 0 Calma 5 Sudeste 0 -- -- 86
2020-06-30 05:00:00 10.3 0 Calma 5 Sur 0 -- -- 85
2020-06-30 04:00:00 11.1 0 Calma 4 Sudeste 0 -- -- 85
2020-06-30 03:00:00 11.7 0 Calma 8 Sur 0 -- -- 84
2020-06-30 02:00:00 12.7 3 Sur 6 Sudeste 0 -- -- 84
2020-06-30 01:00:00 14 0 Calma 6 Sur 0 -- -- 84
2020-06-30 00:00:00 14.8 3 Sur 6 Sur 0 -- -- 83
2020-06-29 23:00:00 16.1 4 Noroeste 12 Sudoeste 0 -- -- 80
2020-06-29 22:00:00 17.7 5 Nordeste 19 Nordeste 0 -- -- 74
2020-06-29 21:00:00 18.2 12 Nordeste 25 Nordeste 0 -- -- 73
2020-06-29 20:00:00 20.2 14 Nordeste 23 Nordeste 0 -- -- 68
2020-06-29 19:00:00 22.6 12 Nordeste 24 Nordeste 0 -- -- 62
2020-06-29 18:00:00 22.4 15 Nordeste 27 Nordeste 0 -- -- 63
2020-06-29 17:00:00 22.1 14 Nordeste 27 Nordeste 0 -- -- 65
2020-06-29 16:00:00 21.5 17 Nordeste 26 Nordeste 0 -- -- 66
2020-06-29 15:00:00 21.2 17 Nordeste 30 Nordeste 0 -- -- 67
2020-06-29 14:00:00 21.4 17 Nordeste 26 Nordeste 0 -- -- 66
2020-06-29 13:00:00 20.9 13 Nordeste 22 Nordeste 0 -- -- 68
2020-06-29 12:00:00 20.6 6 Nordeste 13 Este 0 -- -- 69
2020-06-29 11:00:00 18.6 4 Nordeste 9 Nordeste 0 -- -- 74
2020-06-29 10:00:00 16.8 3 Nordeste 6 Nordeste 0 -- -- 79
2020-06-29 09:00:00 16.1 3 Este 8 Este 0 -- -- 82
2020-06-29 08:00:00 15.7 0 Calma -- -- 0 -- -- 83
2020-06-29 07:00:00 15.3 0 Calma -- -- 0 -- -- 85
2020-06-29 06:00:00 14.8 0 Calma 0 Calma 0 -- -- 85
2020-06-29 05:00:00 14.3 0 Calma 4 Noroeste 0 -- -- 85
2020-06-29 04:00:00 14.1 2 Norte 5 Norte 0 -- -- 86
2020-06-29 03:00:00 14.1 0 Calma 4 Sudeste 0 -- -- 85
2020-06-29 02:00:00 14.5 0 Calma 5 Noroeste 0 -- -- 84
2020-06-29 01:00:00 15.4 3 Noroeste 14 Nordeste 0 -- -- 81
2020-06-29 00:00:00 16.7 10 Nordeste 20 Nordeste 0 -- -- 78
2020-06-28 23:00:00 18.3 10 Nordeste 24 Nordeste 0 -- -- 71
2020-06-28 22:00:00 19.8 15 Nordeste 23 Norte 0 -- -- 66
2020-06-28 21:00:00 21.6 13 Nordeste 27 Nordeste 0 -- -- 61
2020-06-28 20:00:00 25.2 11 Norte 21 Nordeste 0 -- -- 53
2020-06-28 19:00:00 25.5 13 Nordeste 21 Norte 0 -- -- 53
2020-06-28 18:00:00 25.7 11 Nordeste 23 Nordeste 0 -- -- 50
2020-06-28 17:00:00 24.9 12 Nordeste 21 Norte 0 -- -- 54
2020-06-28 16:00:00 24.7 14 Nordeste 26 Nordeste 0 -- -- 54
2020-06-28 15:00:00 25.9 9 Noroeste 29 Sur 0 -- -- 54
2020-06-28 14:00:00 25.6 13 Sur 26 Sur 0 -- -- 48
2020-06-28 13:00:00 25.1 10 Sudoeste 23 Sur 0 -- -- 48
2020-06-28 12:00:00 24.2 11 Sur 20 Sudoeste 0 -- -- 50
2020-06-28 11:00:00 22 6 Nordeste 12 Nordeste 0 -- -- 56
2020-06-28 10:00:00 18.6 0 Calma 5 Este 0 -- -- 75
2020-06-28 09:00:00 15.3 0 Calma 4 Sudeste 0 -- -- 85
2020-06-28 08:00:00 11.8 0 Calma 6 Sur 0 -- -- 89
2020-06-28 07:00:00 10.8 0 Calma 5 Sudoeste 0 -- -- 89
2020-06-28 06:00:00 10.9 0 Calma 0 Calma 0 -- -- 88
2020-06-28 05:00:00 11.4 0 Calma -- -- 0 -- -- 87
2020-06-28 04:00:00 12.2 0 Calma 2 Sudeste 0 -- -- 87
2020-06-28 03:00:00 12.6 0 Calma 4 Sur 0 -- -- 87
2020-06-28 02:00:00 13.4 0 Calma 4 Sudoeste 0 -- -- 84
2020-06-28 01:00:00 14.3 2 Sur 6 Sudoeste 0 -- -- 82
2020-06-28 00:00:00 15.5 0 Calma 5 Oeste 0 -- -- 80
2020-06-27 23:00:00 17.1 0 Calma 6 Oeste 0 -- -- 76
2020-06-27 22:00:00 19.8 3 Noroeste 10 Nordeste 0 -- -- 67
2020-06-27 21:00:00 21.8 5 Nordeste 14 Norte 0 -- -- 60
2020-06-27 20:00:00 23 10 Nordeste 16 Nordeste 0 -- -- 56
2020-06-27 19:00:00 24.2 10 Nordeste 22 Nordeste 0 -- -- 54
2020-06-27 18:00:00 23.5 12 Norte 22 Nordeste 0 -- -- 55
2020-06-27 17:00:00 23.7 12 Nordeste 18 Nordeste 0 -- -- 55
2020-06-27 16:00:00 23.3 11 Nordeste 22 Norte 0 -- -- 56
2020-06-27 15:00:00 22.3 14 Nordeste 33 Noroeste 0 -- -- 55
2020-06-27 14:00:00 24.4 13 Sur 23 Sur 0 -- -- 48
2020-06-27 13:00:00 23 13 Sur 24 Sur 0 -- -- 52
2020-06-27 12:00:00 21.9 10 Sudoeste 33 Sudoeste 0 -- -- 55
2020-06-27 11:00:00 20.9 9 Oeste 20 Oeste 0 -- -- 54
2020-06-27 10:00:00 18.8 3 Sur 9 Sur 0 -- -- 59
2020-06-27 09:00:00 14.6 0 Calma -- -- 0 -- -- 76
2020-06-27 08:00:00 10.8 0 Calma 5 Este 0 -- -- 84
2020-06-27 07:00:00 8.7 0 Calma 3 Sudeste 0 -- -- 87
2020-06-27 06:00:00 9.1 0 Calma 4 Sur 0 -- -- 86
2020-06-27 05:00:00 9.9 3 Sur 6 Sudoeste 0 -- -- 84
2020-06-27 04:00:00 10.7 0 Calma 3 Oeste 0 -- -- 85
2020-06-27 03:00:00 11.4 0 Calma 4 Este 0 -- -- 86
2020-06-27 02:00:00 12.1 3 Sudoeste 6 Sudoeste 0 -- -- 85
2020-06-27 01:00:00 13.4 2 Sur 5 Sudoeste 0 -- -- 82
2020-06-27 00:00:00 14.6 2 Sur 6 Sudoeste 0 -- -- 78
2020-06-26 23:00:00 17.4 0 Calma 12 Nordeste 0 -- -- 70
2020-06-26 22:00:00 18.9 0 Calma 23 Nordeste 0 -- -- 64
2020-06-26 21:00:00 20.2 14 Nordeste 26 Nordeste 0 -- -- 61
2020-06-26 20:00:00 22.2 11 Nordeste 21 Nordeste 0 -- -- 54
2020-06-26 19:00:00 22.3 14 Nordeste 26 Nordeste 0 -- -- 56
2020-06-26 18:00:00 26.6 6 Sudoeste 17 Oeste 0 -- -- 39
2020-06-26 17:00:00 25.9 4 Sudoeste 21 Sudoeste 0 -- -- 42
2020-06-26 16:00:00 25.9 12 Sudoeste 30 Oeste 0 -- -- 43
2020-06-26 15:00:00 24 16 Oeste 30 Oeste 0 -- -- 53
2020-06-26 14:00:00 24.6 10 Sur 26 Sur 0 -- -- 51
2020-06-26 13:00:00 23.4 14 Sur 28 Sur 0 -- -- 56
2020-06-26 12:00:00 22.1 11 Sur 26 Sur 0 -- -- 58
2020-06-26 11:00:00 20.3 8 Sur 18 Sudoeste 0 -- -- 61
2020-06-26 10:00:00 19.3 5 Sudoeste 15 Sur 0 -- -- 62
2020-06-26 09:00:00 18 4 Sudeste 12 Sudeste 0 -- -- 69
2020-06-26 08:00:00 12.6 2 Sudoeste 6 Sudeste 0 -- -- 93
2020-06-26 07:00:00 10.4 0 Calma 5 Sur 0 -- -- 92
2020-06-26 06:00:00 10.5 0 Calma 6 Sur 0 -- -- 92
2020-06-26 05:00:00 11 0 Calma -- -- 0 -- -- 92
2020-06-26 04:00:00 11.5 0 Calma 4 Sur 0 -- -- 92
2020-06-26 03:00:00 11.6 0 Calma 5 Sur 0 -- -- 92
2020-06-26 02:00:00 11.9 0 Calma 12 Este 0 -- -- 91
2020-06-26 01:00:00 12.5 2 Sudoeste 10 Sudoeste 0 -- -- 91
2020-06-26 00:00:00 13.3 0 Calma 6 Este 0 -- -- 91
2020-06-25 23:00:00 13.3 3 Sur 7 Sudoeste 0 -- -- 91
2020-06-25 22:00:00 13.9 3 Sur 14 Noroeste 0 -- -- 89
2020-06-25 21:00:00 14.3 11 Sur 45 Sudoeste 6.8 -- -- 89
2020-06-25 20:00:00 16.7 15 Oeste 37 Oeste 1.6 -- -- 76
2020-06-25 19:00:00 17.4 23 Oeste 52 Noroeste 2.2 -- -- 74
2020-06-25 18:00:00 19.1 18 Este 37 Sudeste 2 -- -- 67
2020-06-25 17:00:00 25.2 14 Nordeste 27 Nordeste 0 -- -- 48
2020-06-25 16:00:00 25 13 Nordeste 24 Nordeste 0 -- -- 50
2020-06-25 15:00:00 22.2 10 Nordeste 26 Nordeste 0 -- -- 66
2020-06-25 14:00:00 21.9 15 Norte 31 Norte 0 -- -- 65
2020-06-25 13:00:00 27.7 5 Sudoeste 27 Sudeste 0 -- -- 40
2020-06-25 12:00:00 25.3 10 Sur 25 Sur 0 -- -- 42
2020-06-25 11:00:00 24.8 13 Sur 22 Sur 0 -- -- 43
2020-06-25 10:00:00 21.7 2 Noroeste 5 Norte 0 -- -- 54
2020-06-25 09:00:00 15.9 0 Calma 5 Este 0 -- -- 79
2020-06-25 08:00:00 11.9 0 Calma 5 Oeste 0 -- -- 82
2020-06-25 07:00:00 10.4 0 Calma 5 Sur 0 -- -- 84
2020-06-25 06:00:00 11 0 Calma 12 Sur 0 -- -- 84
2020-06-25 05:00:00 11.5 0 Calma 8 Sur 0 -- -- 84
2020-06-25 04:00:00 11.5 3 Sur 5 Sur 0 -- -- 82
2020-06-25 03:00:00 12.4 0 Calma 6 Sudoeste 0 -- -- 82
2020-06-25 02:00:00 13.6 0 Calma 4 Sur 0 -- -- 79
2020-06-25 01:00:00 14.6 0 Calma 12 Sudoeste 0 -- -- 76
2020-06-25 00:00:00 18.1 3 Norte 18 Nordeste 0 -- -- 64
2020-06-24 23:00:00 19.3 4 Nordeste 18 Nordeste 0 -- -- 59
2020-06-24 22:00:00 21.1 4 Noroeste 8 Noroeste 0 -- -- 55
2020-06-24 21:00:00 25.1 3 Noroeste 8 Sur 0 -- -- 46
2020-06-24 20:00:00 28.5 5 Sudoeste 17 Sur 0 -- -- 34
2020-06-24 19:00:00 28 5 Sudoeste 15 Sudoeste 0 -- -- 35
2020-06-24 18:00:00 28.8 12 Sudoeste 30 Sudoeste 0 -- -- 32
2020-06-24 17:00:00 27.7 19 Sudoeste 39 Sur 0 -- -- 33
2020-06-24 16:00:00 27.2 19 Sur 37 Sur 0 -- -- 37
2020-06-24 15:00:00 24.6 6 Sur 13 Sudoeste 0 -- -- 51
2020-06-24 14:00:00 25.3 10 Oeste 33 Noroeste 0 -- -- 45
2020-06-24 13:00:00 24.5 4 Nordeste 18 Sudoeste 0 -- -- 54
2020-06-24 12:00:00 26.9 6 Nordeste 17 Sur 0 -- -- 40
2020-06-24 11:00:00 25.5 12 Sudoeste 21 Sudoeste 0 -- -- 47
2020-06-24 10:00:00 23.1 0 Calma 5 Este 0 -- -- 50
2020-06-24 09:00:00 18.3 0 Calma 4 Sudeste 0 -- -- 64
2020-06-24 08:00:00 14.3 2 Sur 5 Sudoeste 0 -- -- 75
2020-06-24 07:00:00 14.2 3 Sudeste 10 Sudoeste 0 -- -- 70
2020-06-24 06:00:00 15.7 2 Sur 5 Sur 0 -- -- 66
2020-06-24 05:00:00 16.2 0 Calma 12 Este 0 -- -- 64
2020-06-24 04:00:00 17.2 4 Sudeste 9 Sur 0 -- -- 61
2020-06-24 03:00:00 18.9 3 Sudoeste 13 Sur 0 -- -- 54
2020-06-24 02:00:00 21.8 8 Sur 24 Noroeste 0 -- -- 38
2020-06-24 01:00:00 19.2 9 Noroeste 16 Noroeste 0 -- -- 50
2020-06-24 00:00:00 20.9 12 Oeste 20 Oeste 0 -- -- 51
2020-06-23 23:00:00 18.2 3 Sudoeste 8 Sudoeste 0 -- -- 71
2020-06-23 22:00:00 21.3 0 Calma 5 Noroeste 0 -- -- 62
2020-06-23 21:00:00 24.5 0 Calma 9 Este 0 -- -- 52
2020-06-23 20:00:00 26.8 4 Este 15 Nordeste 0 -- -- 44
2020-06-23 19:00:00 26.6 9 Nordeste 19 Norte 0 -- -- 43
2020-06-23 18:00:00 28.1 10 Nordeste 21 Nordeste 0 -- -- 40
2020-06-23 17:00:00 27.2 14 Nordeste 25 Nordeste 0 -- -- 44
2020-06-23 16:00:00 27.2 14 Nordeste 23 Norte 0 -- -- 44
2020-06-23 15:00:00 26.5 14 Nordeste 25 Nordeste 0 -- -- 46
2020-06-23 14:00:00 25.6 16 Nordeste 25 Norte 0 -- -- 48
2020-06-23 13:00:00 26.6 6 Este 20 Sudeste 0 -- -- 42
2020-06-23 12:00:00 25.7 8 Sudeste 17 Sudeste 0 -- -- 47
2020-06-23 11:00:00 23.8 8 Sudeste 13 Sudeste 0 -- -- 48
2020-06-23 10:00:00 18.5 0 Calma 6 Sudeste 0 -- -- 59
2020-06-23 09:00:00 12.7 3 Sudeste 5 Sudeste 0 -- -- 78
2020-06-23 08:00:00 8.6 0 Calma 5 Sur 0 -- -- 80
2020-06-23 07:00:00 6.5 0 Calma 6 Sur 0 -- -- 84
2020-06-23 06:00:00 6.9 4 Sur 7 Sur 0 -- -- 85
2020-06-23 05:00:00 7.8 0 Calma 3 Sudeste 0 -- -- 84
2020-06-23 04:00:00 8.9 0 Calma 3 Sur 0 -- -- 82
2020-06-23 03:00:00 9.8 0 Calma 4 Sur 0 -- -- 83
2020-06-23 02:00:00 11 0 Calma 8 Sur 0 -- -- 83
2020-06-23 01:00:00 12.2 0 Calma 4 Sur 0 -- -- 78
2020-06-23 00:00:00 13.6 3 Sudeste 6 Sudeste 0 -- -- 75
2020-06-22 23:00:00 16 2 Sur 6 Sur 0 -- -- 69
2020-06-22 22:00:00 19.1 4 Noroeste 14 Noroeste 0 -- -- 57
2020-06-22 21:00:00 22.7 7 Noroeste 21 Noroeste 0 -- -- 43
2020-06-22 20:00:00 24.9 10 Noroeste 22 Norte 0 -- -- 34
2020-06-22 19:00:00 26.3 9 Norte 21 Norte 0 -- -- 30
2020-06-22 18:00:00 26 13 Nordeste 23 Nordeste 0 -- -- 30
2020-06-22 17:00:00 25.5 10 Nordeste 23 Este 0 -- -- 31
2020-06-22 16:00:00 25 9 Nordeste 23 Nordeste 0 -- -- 33
2020-06-22 15:00:00 24.2 9 Este 22 Este 0 -- -- 39
2020-06-22 14:00:00 23.7 10 Nordeste 23 Nordeste 0 -- -- 39
2020-06-22 13:00:00 22.6 15 Nordeste 21 Nordeste 0 -- -- 37
2020-06-22 12:00:00 21.4 9 Nordeste 17 Nordeste 0 -- -- 31
2020-06-22 11:00:00 19.8 6 Este 12 Este 0 -- -- 44
2020-06-22 10:00:00 17.6 4 Sudeste 12 Nordeste 0 -- -- 65
2020-06-22 09:00:00 14.9 0 Calma 6 Este 0 -- -- 75
2020-06-22 08:00:00 10.9 0 Calma 6 Sudeste 0 -- -- 85
2020-06-22 07:00:00 9.1 0 Calma -- -- 0 -- -- 85
2020-06-22 06:00:00 9.5 0 Calma -- -- 0 -- -- 85
2020-06-22 05:00:00 10.1 0 Calma 5 Nordeste 0 -- -- 85
2020-06-22 04:00:00 11.6 0 Calma 9 Norte 0 -- -- 80
2020-06-22 03:00:00 13.1 4 Norte 9 Noroeste 0 -- -- 78
2020-06-22 02:00:00 13.1 0 Calma 6 Este 0 -- -- 75
2020-06-22 01:00:00 13.2 4 Este 6 Este 0 -- -- 77
2020-06-22 00:00:00 14.3 0 Calma 12 Norte 0 -- -- 74
2020-06-21 23:00:00 16 8 Norte 30 Nordeste 0 -- -- 68
2020-06-21 22:00:00 17.3 20 Nordeste 36 Norte 0 -- -- 62
2020-06-21 21:00:00 19 20 Nordeste 34 Nordeste 0 -- -- 56
2020-06-21 20:00:00 21.5 21 Nordeste 36 Nordeste 0 -- -- 49
2020-06-21 19:00:00 24.2 11 Norte 31 Norte 0 -- -- 44
2020-06-21 18:00:00 24.1 13 Norte 33 Nordeste 0 -- -- 44
2020-06-21 17:00:00 23.7 15 Norte 28 Norte 0 -- -- 43
2020-06-21 16:00:00 23.9 8 Norte 22 Nordeste 0 -- -- 44
2020-06-21 15:00:00 24 10 Nordeste 20 Nordeste 0 -- -- 43
2020-06-21 14:00:00 23.5 12 Nordeste 19 Nordeste 0 -- -- 42
2020-06-21 13:00:00 22.1 11 Nordeste 20 Nordeste 0 -- -- 42
2020-06-21 12:00:00 21.5 8 Nordeste 16 Nordeste 0 -- -- 44
2020-06-21 11:00:00 20 6 Nordeste 14 Nordeste 0 -- -- 46
2020-06-21 10:00:00 17.9 7 Nordeste 12 Nordeste 0 -- -- 50
2020-06-21 09:00:00 12.8 0 Calma 4 Este 0 -- -- 84
2020-06-21 08:00:00 9.2 0 Calma -- -- 0 -- -- 87
2020-06-21 07:00:00 7.2 0 Calma -- -- 0 -- -- 88
2020-06-21 06:00:00 7.6 0 Calma -- -- 0 -- -- 88
2020-06-21 05:00:00 8.1 0 Calma -- -- 0 -- -- 88
2020-06-21 04:00:00 8.9 0 Calma -- -- 0 -- -- 87
2020-06-21 03:00:00 9.7 0 Calma -- -- 0 -- -- 85
2020-06-21 02:00:00 10.8 0 Calma -- -- 0 -- -- 85
2020-06-21 01:00:00 11.6 0 Calma -- -- 0 -- -- 82
2020-06-21 00:00:00 13 0 Calma 0 Calma 0 -- -- 78
2020-06-20 23:00:00 15.4 0 Calma -- -- 0 -- -- 71
2020-06-20 22:00:00 18.4 0 Calma 9 Nordeste 0 -- -- 62
2020-06-20 21:00:00 21.5 7 Nordeste 15 Nordeste 0 -- -- 48
2020-06-20 20:00:00 22.5 6 Nordeste 17 Nordeste 0 -- -- 53
2020-06-20 19:00:00 24.4 10 Nordeste 18 Nordeste 0 -- -- 48
2020-06-20 18:00:00 23.3 12 Norte 22 Nordeste 0 -- -- 51
2020-06-20 17:00:00 23 17 Nordeste 26 Nordeste 0 -- -- 52
2020-06-20 16:00:00 22.7 12 Nordeste 23 Nordeste 0 -- -- 55
2020-06-20 15:00:00 22.4 14 Nordeste 23 Nordeste 0 -- -- 56
2020-06-20 14:00:00 20.8 13 Nordeste 23 Nordeste 0 -- -- 62
2020-06-20 13:00:00 20.9 11 Nordeste 21 Nordeste 0 -- -- 62
2020-06-20 12:00:00 20.7 4 Norte 19 Sudeste 0 -- -- 64
2020-06-20 11:00:00 20.5 9 Sur 20 Sudeste 0 -- -- 58
2020-06-20 10:00:00 17.8 0 Calma 5 Sudeste 0 -- -- 71
2020-06-20 09:00:00 12.7 0 Calma 5 Sudeste 0 -- -- 86
2020-06-20 08:00:00 9.1 0 Calma -- -- 0 -- -- 91
2020-06-20 07:00:00 7.8 0 Calma -- -- 0 -- -- 90
2020-06-20 06:00:00 8.2 0 Calma 0 Calma 0 -- -- 89
2020-06-20 05:00:00 8.2 0 Calma -- -- 0 -- -- 88
2020-06-20 04:00:00 8.3 0 Calma 3 Sur 0 -- -- 87
2020-06-20 03:00:00 9 0 Calma -- -- 0 -- -- 87
2020-06-20 02:00:00 9.8 0 Calma -- -- 0 -- -- 86
2020-06-20 01:00:00 10.8 0 Calma -- -- 0 -- -- 84
2020-06-20 00:00:00 12.2 0 Calma -- -- 0 -- -- 81
2020-06-19 23:00:00 14.1 0 Calma 8 Nordeste 0 -- -- 75
2020-06-19 22:00:00 16.9 6 Nordeste 12 Nordeste 0 -- -- 67
2020-06-19 21:00:00 18.9 7 Norte 19 Nordeste 0 -- -- 58
2020-06-19 20:00:00 21.7 9 Nordeste 19 Nordeste 0 -- -- 50
2020-06-19 19:00:00 21.7 10 Norte 24 Nordeste 0 -- -- 49
2020-06-19 18:00:00 21.9 12 Nordeste 21 Nordeste 0 -- -- 49
2020-06-19 17:00:00 20.6 13 Nordeste 24 Nordeste 0 -- -- 54
2020-06-19 16:00:00 20.4 14 Norte 30 Norte 0 -- -- 54
2020-06-19 15:00:00 21.2 13 Nordeste 25 Nordeste 0 -- -- 53
2020-06-19 14:00:00 21.3 13 Sudoeste 25 Sur 0 -- -- 50
2020-06-19 13:00:00 20 11 Sur 23 Sur 0 -- -- 54
2020-06-19 12:00:00 18.4 12 Sudoeste 28 Sudoeste 0 -- -- 62
2020-06-19 11:00:00 16.8 12 Sur 21 Sur 0 -- -- 69
2020-06-19 10:00:00 14.9 0 Calma 4 Sudeste 0 -- -- 75
2020-06-19 09:00:00 8.9 0 Calma 6 Sur 0 -- -- 89
2020-06-19 08:00:00 5.6 2 Sur 5 Sur 0 -- -- 91
2020-06-19 07:00:00 4.7 0 Calma 3 Este 0 -- -- 90
2020-06-19 06:00:00 4.8 0 Calma 3 Sudeste 0 -- -- 90
2020-06-19 05:00:00 5.3 0 Calma 4 Sur 0 -- -- 89
2020-06-19 04:00:00 6 0 Calma 4 Sudoeste 0 -- -- 89
2020-06-19 03:00:00 6.5 0 Calma 3 Noroeste 0 -- -- 88
2020-06-19 02:00:00 7.5 0 Calma 4 Sur 0 -- -- 88
2020-06-19 01:00:00 8.1 3 Sudoeste 6 Sudoeste 0 -- -- 85
2020-06-19 00:00:00 9.9 2 Sudeste 5 Sudeste 0 -- -- 82
2020-06-18 23:00:00 11.6 0 Calma 9 Nordeste 0 -- -- 78
2020-06-18 22:00:00 13.3 5 Nordeste 12 Nordeste 0 -- -- 70
2020-06-18 21:00:00 14.5 4 Norte 14 Nordeste 0 -- -- 67
2020-06-18 20:00:00 15 6 Nordeste 15 Norte 0 -- -- 64
2020-06-18 19:00:00 14.8 7 Norte 19 Nordeste 0 -- -- 67
2020-06-18 18:00:00 15.3 10 Nordeste 19 Nordeste 0 -- -- 66
2020-06-18 17:00:00 14.6 11 Nordeste 18 Nordeste 0 -- -- 69
2020-06-18 16:00:00 14.3 6 Nordeste 14 Nordeste 0 -- -- 73
2020-06-18 15:00:00 13.3 6 Nordeste 19 Nordeste 0.8 -- -- 77
2020-06-18 14:00:00 13.1 9 Nordeste 23 Nordeste 0.2 -- -- 71
2020-06-18 13:00:00 14.4 9 Nordeste 18 Nordeste 0 -- -- 66
2020-06-18 12:00:00 12.7 10 Nordeste 17 Nordeste 0 -- -- 69
2020-06-18 11:00:00 12.2 7 Nordeste 13 Nordeste 0 -- -- 70
2020-06-18 10:00:00 11.2 4 Nordeste 10 Nordeste 0 -- -- 76
2020-06-18 09:00:00 8.2 0 Calma 5 Sudeste 0 -- -- 89
2020-06-18 08:00:00 7.2 0 Calma 6 Sudeste 0 -- -- 91
2020-06-18 07:00:00 6.9 0 Calma 9 Sudoeste 0 -- -- 90
2020-06-18 06:00:00 7.3 3 Sur 8 Sudoeste 0 -- -- 88
2020-06-18 05:00:00 7.6 0 Calma 7 Sudoeste 0 -- -- 88
2020-06-18 04:00:00 8.8 2 Oeste 5 Sudeste 0 -- -- 87
2020-06-18 03:00:00 8.6 0 Calma 6 Sudeste 0 -- -- 86
2020-06-18 02:00:00 8.8 2 Sur 5 Sudeste 0 -- -- 87
2020-06-18 01:00:00 9.2 2 Sudeste 9 Nordeste 0 -- -- 83
2020-06-18 00:00:00 9.8 3 Nordeste 16 Nordeste 0 -- -- 81
2020-06-17 23:00:00 10.4 8 Nordeste 18 Nordeste 0 -- -- 78
2020-06-17 22:00:00 11.4 9 Nordeste 19 Nordeste 0 -- -- 76
2020-06-17 21:00:00 13.1 11 Norte 22 Nordeste 0 -- -- 67
2020-06-17 20:00:00 15.3 9 Norte 23 Nordeste 0 -- -- 56
2020-06-17 19:00:00 14.7 9 Nordeste 20 Norte 0 -- -- 63
2020-06-17 18:00:00 15.9 8 Nordeste 19 Norte 0 -- -- 61
2020-06-17 17:00:00 13.6 13 Nordeste 23 Nordeste 0 -- -- 67
2020-06-17 16:00:00 13.8 4 Norte 8 Nordeste 0 -- -- 71
2020-06-17 15:00:00 12.5 3 Nordeste 12 Nordeste 0.6 -- -- 73
2020-06-17 14:00:00 12.7 5 Nordeste 18 Nordeste 0.2 -- -- 74
2020-06-17 13:00:00 11.8 0 Calma -- -- 0.4 -- -- 76
2020-06-17 12:00:00 10.7 0 Calma 8 Nordeste 0.4 -- -- 77
2020-06-17 11:00:00 9.7 3 Nordeste 9 Nordeste 0.4 -- -- 83
2020-06-17 10:00:00 9 4 Nordeste 12 Nordeste 0.6 -- -- 85
2020-06-17 09:00:00 8.9 5 Nordeste 8 Nordeste 1 -- -- 85
2020-06-17 08:00:00 8.7 3 Nordeste 7 Nordeste 0.2 -- -- 86
2020-06-17 07:00:00 8.6 2 Nordeste 5 Nordeste 0 -- -- 87
2020-06-17 06:00:00 8.6 0 Calma 8 Nordeste 0 -- -- 87
2020-06-17 05:00:00 8.5 5 Nordeste 12 Nordeste 0 -- -- 87
2020-06-17 04:00:00 8.6 5 Nordeste 15 Nordeste 0 -- -- 86
2020-06-17 03:00:00 8.9 4 Nordeste 10 Nordeste 0 -- -- 86
2020-06-17 02:00:00 9.1 0 Calma 19 Nordeste 0 -- -- 86
2020-06-17 01:00:00 9.2 4 Norte 14 Nordeste 0 -- -- 85
2020-06-17 00:00:00 9.4 6 Norte 14 Nordeste 0.2 -- -- 84
2020-06-16 23:00:00 10.4 0 Calma 8 Sur 0 -- -- 86
2020-06-16 22:00:00 10.6 4 Norte 8 Norte 1.4 -- -- 86
2020-06-16 21:00:00 10.8 0 Calma 10 Nordeste 0 -- -- 90
2020-06-16 20:00:00 11 4 Nordeste 19 Noroeste 3.6 -- -- 90
2020-06-16 19:00:00 10.6 7 Nordeste 24 Nordeste 4.6 -- -- 89
2020-06-16 18:00:00 12.8 18 Nordeste 29 Norte 2 -- -- 88
2020-06-16 17:00:00 16.3 13 Nordeste 24 Nordeste 0 -- -- 61
2020-06-16 16:00:00 16.8 8 Nordeste 17 Nordeste 0 -- -- 59
2020-06-16 15:00:00 15.9 13 Nordeste 21 Nordeste 0 -- -- 62
2020-06-16 14:00:00 17.2 6 Este 14 Nordeste 0 -- -- 59
2020-06-16 13:00:00 15.1 9 Nordeste 19 Nordeste 0 -- -- 64
2020-06-16 12:00:00 15.3 9 Nordeste 20 Norte 0 -- -- 64
2020-06-16 11:00:00 15.7 5 Sur 10 Sudeste 0 -- -- 59
2020-06-16 10:00:00 13 3 Sudeste 8 Sudeste 0 -- -- 76
2020-06-16 09:00:00 11.1 0 Calma 5 Este 0 -- -- 82
2020-06-16 08:00:00 10.3 0 Calma 4 Sudoeste 0 -- -- 86
2020-06-16 07:00:00 9.7 0 Calma 3 Sur 0 -- -- 87
2020-06-16 06:00:00 9.7 0 Calma 5 Sudoeste 0 -- -- 87
2020-06-16 05:00:00 9.9 0 Calma 3 Norte 0 -- -- 87
2020-06-16 04:00:00 10.4 0 Calma 4 Noroeste 0 -- -- 84
2020-06-16 03:00:00 10.6 0 Calma 10 Nordeste 0 -- -- 83
2020-06-16 02:00:00 11 3 Nordeste 9 Nordeste 0 -- -- 81
2020-06-16 01:00:00 11.4 0 Calma 9 Nordeste 0 -- -- 81
2020-06-16 00:00:00 12 6 Nordeste 16 Nordeste 0 -- -- 79
2020-06-15 23:00:00 13 9 Nordeste 16 Nordeste 0 -- -- 73
2020-06-15 22:00:00 14 7 Nordeste 17 Nordeste 0 -- -- 70
2020-06-15 21:00:00 15.8 8 Nordeste 18 Nordeste 0 -- -- 63
2020-06-15 20:00:00 17 9 Nordeste 18 Nordeste 0 -- -- 59
2020-06-15 19:00:00 16.6 9 Nordeste 21 Nordeste 0 -- -- 62
2020-06-15 18:00:00 17.4 14 Nordeste 24 Nordeste 0 -- -- 61
2020-06-15 17:00:00 16.2 14 Nordeste 24 Nordeste 0 -- -- 64
2020-06-15 16:00:00 16.7 12 Nordeste 26 Norte 0 -- -- 61
2020-06-15 15:00:00 17.8 9 Norte 31 Sudoeste 0 -- -- 57
2020-06-15 14:00:00 17.6 14 Sur 30 Sudoeste 0 -- -- 52
2020-06-15 13:00:00 17.3 6 Norte 17 Nordeste 0 -- -- 56
2020-06-15 12:00:00 17.2 7 Sur 14 Sudoeste 0 -- -- 55
2020-06-15 11:00:00 16.1 5 Sur 13 Sur 0 -- -- 56
2020-06-15 10:00:00 13.5 3 Sur 8 Sudeste 0 -- -- 70
2020-06-15 09:00:00 10.4 0 Calma 3 Sudeste 0 -- -- 82
2020-06-15 08:00:00 8.3 0 Calma 6 Sudeste 0 -- -- 85
2020-06-15 07:00:00 7.7 0 Calma 3 Oeste 0 -- -- 86
2020-06-15 06:00:00 7 0 Calma 4 Este 0 -- -- 86
2020-06-15 05:00:00 7.1 0 Calma 6 Sur 0 -- -- 85
2020-06-15 04:00:00 7.4 3 Oeste 9 Sur 0 -- -- 85
2020-06-15 03:00:00 7.4 0 Calma -- -- 0 -- -- 83
2020-06-15 02:00:00 8.4 0 Calma 3 Sudeste 0 -- -- 79
2020-06-15 01:00:00 10.6 0 Calma 4 Este 0 -- -- 73
2020-06-15 00:00:00 12.4 2 Este 4 Este 0 -- -- 72
2020-06-14 23:00:00 13.6 0 Calma 6 Este 0 -- -- 59
2020-06-14 22:00:00 14.2 5 Nordeste 14 Nordeste 0 -- -- 58
2020-06-14 21:00:00 15.4 8 Nordeste 14 Nordeste 0 -- -- 55
2020-06-14 20:00:00 16.1 8 Nordeste 15 Nordeste 0 -- -- 56
2020-06-14 19:00:00 16.7 8 Nordeste 20 Oeste 0 -- -- 55
2020-06-14 18:00:00 18.1 11 Sudoeste 27 Sudoeste 0 -- -- 44
2020-06-14 17:00:00 18.6 10 Sudoeste 27 Sudoeste 0 -- -- 42
2020-06-14 16:00:00 19.3 15 Sudoeste 32 Sudoeste 0 -- -- 41
2020-06-14 15:00:00 18.6 16 Sudoeste 31 Sur 0 -- -- 44
2020-06-14 14:00:00 18.4 17 Sudoeste 34 Sudoeste 0 -- -- 47
2020-06-14 13:00:00 17.9 13 Sudoeste 32 Sudoeste 0 -- -- 51
2020-06-14 12:00:00 17.1 13 Sur 26 Sudoeste 0 -- -- 51
2020-06-14 11:00:00 15.2 9 Sudoeste 20 Oeste 0 -- -- 59
2020-06-14 10:00:00 12.8 0 Calma 8 Sudeste 0 -- -- 67
2020-06-14 09:00:00 10.9 0 Calma 2 Sur 0 -- -- 78
2020-06-14 08:00:00 9.4 0 Calma 5 Sur 0 -- -- 83
2020-06-14 07:00:00 8.7 0 Calma 5 Sur 0 -- -- 84
2020-06-14 06:00:00 8.7 3 Sur 4 Sur 0 -- -- 83
2020-06-14 05:00:00 8.7 0 Calma 6 Sur 0 -- -- 82
2020-06-14 04:00:00 8.5 0 Calma 3 Sur 0 -- -- 83
2020-06-14 03:00:00 8.4 0 Calma 4 Sur 0 -- -- 79
2020-06-14 02:00:00 8.1 0 Calma 4 Sur 0 -- -- 81
2020-06-14 01:00:00 7.9 0 Calma 8 Sur 0 -- -- 77
2020-06-14 00:00:00 8.2 5 Sur 11 Sur 0 -- -- 75
2020-06-13 23:00:00 9.2 3 Sur 10 Oeste 0 -- -- 71
2020-06-13 22:00:00 11 6 Oeste 13 Oeste 0 -- -- 67
2020-06-13 21:00:00 14.4 6 Oeste 22 Oeste 0 -- -- 55
2020-06-13 20:00:00 16.1 8 Oeste 22 Oeste 0 -- -- 46
2020-06-13 19:00:00 16.3 12 Sudoeste 34 Sudoeste 0 -- -- 46
2020-06-13 18:00:00 16.5 17 Sudoeste 33 Oeste 0 -- -- 47
2020-06-13 17:00:00 16.7 6 Oeste 24 Noroeste 0 -- -- 45
2020-06-13 16:00:00 17.1 14 Oeste 31 Sudoeste 0 -- -- 45
2020-06-13 15:00:00 15.6 10 Oeste 29 Sudoeste 0 -- -- 48
2020-06-13 14:00:00 13.4 11 Sudoeste 33 Sudoeste 0 -- -- 55
2020-06-13 13:00:00 12.9 14 Sudoeste 29 Sudoeste 0 -- -- 58
2020-06-13 12:00:00 13.2 12 Sudoeste 32 Oeste 0 -- -- 55
2020-06-13 11:00:00 12.9 19 Oeste 33 Oeste 0 -- -- 56
2020-06-13 10:00:00 11.7 16 Sudoeste 35 Sudoeste 0 -- -- 62
2020-06-13 09:00:00 11 15 Oeste 32 Sudoeste 0 -- -- 67
2020-06-13 08:00:00 9.6 8 Sudoeste 28 Sudoeste 0 -- -- 74
2020-06-13 07:00:00 8.4 9 Sudoeste 25 Sudoeste 0 -- -- 78
2020-06-13 06:00:00 7.7 6 Oeste 31 Sudoeste 0 -- -- 80
2020-06-13 05:00:00 8.6 17 Sudoeste 31 Sudoeste 0 -- -- 77
2020-06-13 04:00:00 8.7 16 Sudoeste 27 Sudoeste 0 -- -- 79
2020-06-13 03:00:00 8.9 8 Sudoeste 24 Sur 0 -- -- 78
2020-06-13 02:00:00 8.6 8 Sudoeste 18 Sudoeste 0 -- -- 79
2020-06-13 01:00:00 8.6 8 Sudoeste 19 Sudoeste 0 -- -- 82
2020-06-13 00:00:00 8.3 6 Sur 10 Sur 0 -- -- 84
2020-06-12 23:00:00 8 0 Calma 15 Sudoeste 0 -- -- 81
2020-06-12 22:00:00 7.9 3 Sur 13 Sur 0 -- -- 76
2020-06-12 21:00:00 10 6 Sudoeste 32 Oeste 0 -- -- 74
2020-06-12 20:00:00 12.6 14 Oeste 42 Sudoeste 0 -- -- 63
2020-06-12 19:00:00 12 25 Oeste 44 Oeste 0.6 -- -- 68
2020-06-12 18:00:00 11.2 21 Sudoeste 42 Sudoeste 0.2 -- -- 71
2020-06-12 17:00:00 12.4 16 Oeste 37 Oeste 0 -- -- 67
2020-06-12 16:00:00 13.6 19 Sudoeste 51 Sudoeste 0 -- -- 60
2020-06-12 15:00:00 12.3 26 Sudoeste 49 Sudoeste 0 -- -- 64
2020-06-12 14:00:00 11 12 Sudoeste 38 Sudoeste 0 -- -- 73
2020-06-12 13:00:00 9.7 16 Sudoeste 32 Sudoeste 0 -- -- 71
2020-06-12 12:00:00 8.8 16 Sudoeste 35 Sudoeste 0 -- -- 79
2020-06-12 11:00:00 9.9 20 Sudoeste 39 Sudoeste 0 -- -- 68
2020-06-12 10:00:00 8.1 14 Sudoeste 29 Sudoeste 0 -- -- 76
2020-06-12 09:00:00 7.5 15 Sudoeste 42 Sudoeste 0 -- -- 75
2020-06-12 08:00:00 6.9 26 Sudoeste 51 Sudoeste 0 -- -- 75
2020-06-12 07:00:00 6.7 27 Sudoeste 48 Sudoeste 0 -- -- 71
2020-06-12 06:00:00 6.4 25 Sudoeste 54 Oeste 0 -- -- 70
2020-06-12 05:00:00 6.1 14 Sudoeste 30 Sudoeste 0 -- -- 70
2020-06-12 04:00:00 6.4 9 Sudoeste 24 Sudoeste 0 -- -- 72
2020-06-12 03:00:00 6.1 4 Oeste 11 Sudoeste 0 -- -- 76
2020-06-12 02:00:00 6.6 3 Oeste 11 Sudeste 0 -- -- 88
2020-06-12 01:00:00 7.9 0 Calma 8 Sudeste 0 -- -- 81
2020-06-12 00:00:00 9.6 5 Sudeste 23 Nordeste 0 -- -- 79